Lardo, Idaho
Current Conditions -  °F | °C
As of 9:51 PM on Monday 26 Jan 2015 (Local Time) from KMYL Reporting Station
Clear Clear  
Wind Chill: 28°   Ceiling: Unl
Heat Index: 28°   Visibility: 10mi
Dew Point: 25°   Wind: 0mph
Humidity: 88%   Direction: NA
Pressure: 30.11"   Gusts: NA
Location:  44.8627°N, 115.492°W
Report Text: KMYL 270451Z AUTO 00000KT 10SM CLR M02/M04 A3011 RMK AO2 SLP230 T10221039
Loading
Personal Weather Stations






























Interactive Weather Map New forecast layout! Learn more

10-Day Weather Forecast

Advertisements
Track Severe Weather on mobile